sensor_id;sensor_type;location;lat;lon;timestamp;P1;durP1;ratioP1;P2;durP2;ratioP2
11960;SDS011;6040;49.358;11.140;2022-07-23T00:01:20;9.83;;;8.07;;
11960;SDS011;6040;49.358;11.140;2022-07-23T00:03:47;10.70;;;8.67;;
11960;SDS011;6040;49.358;11.140;2022-07-23T00:06:14;15.50;;;8.90;;
11960;SDS011;6040;49.358;11.140;2022-07-23T00:08:41;9.87;;;8.87;;
11960;SDS011;6040;49.358;11.140;2022-07-23T00:11:08;12.27;;;9.00;;
11960;SDS011;6040;49.358;11.140;2022-07-23T00:13:35;9.47;;;8.53;;
11960;SDS011;6040;49.358;11.140;2022-07-23T00:16:02;8.90;;;7.93;;
11960;SDS011;6040;49.358;11.140;2022-07-23T00:18:31;13.33;;;9.03;;
11960;SDS011;6040;49.358;11.140;2022-07-23T00:20:58;9.57;;;8.57;;
11960;SDS011;6040;49.358;11.140;2022-07-23T00:23:25;9.77;;;8.77;;
11960;SDS011;6040;49.358;11.140;2022-07-23T00:25:54;11.57;;;9.40;;
11960;SDS011;6040;49.358;11.140;2022-07-23T00:28:21;10.03;;;9.03;;
11960;SDS011;6040;49.358;11.140;2022-07-23T00:30:47;10.27;;;9.20;;
11960;SDS011;6040;49.358;11.140;2022-07-23T00:33:14;11.73;;;9.37;;
11960;SDS011;6040;49.358;11.140;2022-07-23T00:35:42;9.93;;;8.90;;
11960;SDS011;6040;49.358;11.140;2022-07-23T00:38:10;10.03;;;8.97;;
11960;SDS011;6040;49.358;11.140;2022-07-23T00:40:37;12.93;;;9.60;;
11960;SDS011;6040;49.358;11.140;2022-07-23T00:43:05;10.63;;;9.00;;
11960;SDS011;6040;49.358;11.140;2022-07-23T00:45:32;12.90;;;9.63;;
11960;SDS011;6040;49.358;11.140;2022-07-23T00:47:59;10.90;;;9.80;;
11960;SDS011;6040;49.358;11.140;2022-07-23T00:50:26;10.23;;;9.20;;
11960;SDS011;6040;49.358;11.140;2022-07-23T00:52:55;13.80;;;9.37;;
11960;SDS011;6040;49.358;11.140;2022-07-23T00:55:22;10.93;;;9.20;;
11960;SDS011;6040;49.358;11.140;2022-07-23T00:57:49;10.90;;;9.27;;
11960;SDS011;6040;49.358;11.140;2022-07-23T01:00:16;11.53;;;8.87;;
11960;SDS011;6040;49.358;11.140;2022-07-23T01:02:44;12.33;;;9.57;;
11960;SDS011;6040;49.358;11.140;2022-07-23T01:05:10;10.40;;;9.30;;
11960;SDS011;6040;49.358;11.140;2022-07-23T01:07:38;11.53;;;9.83;;
11960;SDS011;6040;49.358;11.140;2022-07-23T01:10:07;10.23;;;9.23;;
11960;SDS011;6040;49.358;11.140;2022-07-23T01:12:48;11.43;;;10.23;;
11960;SDS011;6040;49.358;11.140;2022-07-23T01:15:15;13.20;;;10.23;;
11960;SDS011;6040;49.358;11.140;2022-07-23T01:17:42;11.33;;;10.23;;
11960;SDS011;6040;49.358;11.140;2022-07-23T01:20:09;11.33;;;10.10;;
11960;SDS011;6040;49.358;11.140;2022-07-23T01:22:37;11.30;;;10.27;;
11960;SDS011;6040;49.358;11.140;2022-07-23T01:25:05;12.37;;;10.77;;
11960;SDS011;6040;49.358;11.140;2022-07-23T01:27:32;10.53;;;9.43;;
11960;SDS011;6040;49.358;11.140;2022-07-23T01:29:59;10.70;;;9.63;;
11960;SDS011;6040;49.358;11.140;2022-07-23T01:32:26;10.60;;;9.50;;
11960;SDS011;6040;49.358;11.140;2022-07-23T01:34:53;11.33;;;9.67;;
11960;SDS011;6040;49.358;11.140;2022-07-23T01:37:20;12.97;;;10.67;;
11960;SDS011;6040;49.358;11.140;2022-07-23T01:39:48;11.30;;;9.90;;
11960;SDS011;6040;49.358;11.140;2022-07-23T01:42:16;11.30;;;10.10;;
11960;SDS011;6040;49.358;11.140;2022-07-23T01:44:43;10.63;;;9.63;;
11960;SDS011;6040;49.358;11.140;2022-07-23T01:47:10;12.13;;;10.67;;
11960;SDS011;6040;49.358;11.140;2022-07-23T01:49:37;10.60;;;9.60;;
11960;SDS011;6040;49.358;11.140;2022-07-23T01:52:04;11.20;;;9.97;;
11960;SDS011;6040;49.358;11.140;2022-07-23T01:54:34;11.00;;;9.90;;
11960;SDS011;6040;49.358;11.140;2022-07-23T01:57:02;13.67;;;10.47;;
11960;SDS011;6040;49.358;11.140;2022-07-23T01:59:29;13.53;;;9.83;;
11960;SDS011;6040;49.358;11.140;2022-07-23T02:01:57;10.73;;;9.40;;
11960;SDS011;6040;49.358;11.140;2022-07-23T02:04:24;10.30;;;9.30;;
11960;SDS011;6040;49.358;11.140;2022-07-23T02:06:51;9.83;;;8.90;;
11960;SDS011;6040;49.358;11.140;2022-07-23T02:09:19;11.20;;;9.97;;
11960;SDS011;6040;49.358;11.140;2022-07-23T02:11:46;10.70;;;9.50;;
11960;SDS011;6040;49.358;11.140;2022-07-23T02:14:14;13.57;;;10.70;;
11960;SDS011;6040;49.358;11.140;2022-07-23T02:16:41;11.17;;;10.07;;
11960;SDS011;6040;49.358;11.140;2022-07-23T02:19:08;10.63;;;9.53;;
11960;SDS011;6040;49.358;11.140;2022-07-23T02:21:35;10.27;;;9.27;;
11960;SDS011;6040;49.358;11.140;2022-07-23T02:24:01;11.93;;;10.73;;
11960;SDS011;6040;49.358;11.140;2022-07-23T02:26:28;12.00;;;9.90;;
11960;SDS011;6040;49.358;11.140;2022-07-23T02:28:57;10.50;;;9.50;;
11960;SDS011;6040;49.358;11.140;2022-07-23T02:31:25;10.83;;;9.83;;
11960;SDS011;6040;49.358;11.140;2022-07-23T02:33:52;13.30;;;10.30;;
11960;SDS011;6040;49.358;11.140;2022-07-23T02:36:19;13.10;;;10.90;;
11960;SDS011;6040;49.358;11.140;2022-07-23T02:38:46;10.83;;;9.73;;
11960;SDS011;6040;49.358;11.140;2022-07-23T02:41:13;12.60;;;10.70;;
11960;SDS011;6040;49.358;11.140;2022-07-23T02:43:39;11.83;;;10.60;;
11960;SDS011;6040;49.358;11.140;2022-07-23T02:46:06;11.17;;;9.97;;
11960;SDS011;6040;49.358;11.140;2022-07-23T02:48:35;11.10;;;9.87;;
11960;SDS011;6040;49.358;11.140;2022-07-23T02:51:02;10.37;;;9.47;;
11960;SDS011;6040;49.358;11.140;2022-07-23T02:53:29;10.90;;;10.00;;
11960;SDS011;6040;49.358;11.140;2022-07-23T02:55:56;11.17;;;9.87;;
11960;SDS011;6040;49.358;11.140;2022-07-23T02:58:23;11.83;;;10.63;;
11960;SDS011;6040;49.358;11.140;2022-07-23T03:00:51;11.17;;;9.93;;
11960;SDS011;6040;49.358;11.140;2022-07-23T03:03:18;11.33;;;9.83;;
11960;SDS011;6040;49.358;11.140;2022-07-23T03:05:46;11.30;;;10.20;;
11960;SDS011;6040;49.358;11.140;2022-07-23T03:08:13;11.33;;;10.13;;
11960;SDS011;6040;49.358;11.140;2022-07-23T03:10:40;10.70;;;9.50;;
11960;SDS011;6040;49.358;11.140;2022-07-23T03:13:07;10.37;;;9.37;;
11960;SDS011;6040;49.358;11.140;2022-07-23T03:15:34;10.60;;;9.60;;
11960;SDS011;6040;49.358;11.140;2022-07-23T03:18:01;12.53;;;9.93;;
11960;SDS011;6040;49.358;11.140;2022-07-23T03:20:28;10.50;;;9.50;;
11960;SDS011;6040;49.358;11.140;2022-07-23T03:22:56;10.03;;;8.97;;
11960;SDS011;6040;49.358;11.140;2022-07-23T03:25:23;10.43;;;9.33;;
11960;SDS011;6040;49.358;11.140;2022-07-23T03:27:50;10.80;;;9.10;;
11960;SDS011;6040;49.358;11.140;2022-07-23T03:30:17;10.60;;;9.07;;
11960;SDS011;6040;49.358;11.140;2022-07-23T03:32:44;11.43;;;9.13;;
11960;SDS011;6040;49.358;11.140;2022-07-23T03:35:10;10.83;;;9.20;;
11960;SDS011;6040;49.358;11.140;2022-07-23T03:37:37;10.30;;;9.30;;
11960;SDS011;6040;49.358;11.140;2022-07-23T03:40:07;9.93;;;8.87;;
11960;SDS011;6040;49.358;11.140;2022-07-23T03:42:34;9.57;;;8.53;;
11960;SDS011;6040;49.358;11.140;2022-07-23T03:45:02;9.57;;;8.57;;
11960;SDS011;6040;49.358;11.140;2022-07-23T03:47:29;12.83;;;9.57;;
11960;SDS011;6040;49.358;11.140;2022-07-23T03:49:56;10.47;;;9.37;;
11960;SDS011;6040;49.358;11.140;2022-07-23T03:52:23;10.30;;;9.30;;
11960;SDS011;6040;49.358;11.140;2022-07-23T03:54:50;10.63;;;9.13;;
11960;SDS011;6040;49.358;11.140;2022-07-23T03:57:18;9.80;;;8.90;;
11960;SDS011;6040;49.358;11.140;2022-07-23T03:59:45;10.23;;;9.27;;
11960;SDS011;6040;49.358;11.140;2022-07-23T04:02:12;10.60;;;9.00;;
11960;SDS011;6040;49.358;11.140;2022-07-23T04:04:39;9.87;;;8.97;;
11960;SDS011;6040;49.358;11.140;2022-07-23T04:07:05;10.23;;;9.33;;
11960;SDS011;6040;49.358;11.140;2022-07-23T04:09:33;9.83;;;8.83;;
11960;SDS011;6040;49.358;11.140;2022-07-23T04:12:00;10.07;;;9.13;;
11960;SDS011;6040;49.358;11.140;2022-07-23T04:14:28;9.53;;;8.63;;
11960;SDS011;6040;49.358;11.140;2022-07-23T04:16:55;10.40;;;9.47;;
11960;SDS011;6040;49.358;11.140;2022-07-23T04:19:22;9.80;;;8.80;;
11960;SDS011;6040;49.358;11.140;2022-07-23T04:21:49;9.10;;;8.20;;
11960;SDS011;6040;49.358;11.140;2022-07-23T04:24:16;9.00;;;8.20;;
11960;SDS011;6040;49.358;11.140;2022-07-23T04:26:44;11.43;;;8.87;;
11960;SDS011;6040;49.358;11.140;2022-07-23T04:29:11;10.30;;;9.20;;
11960;SDS011;6040;49.358;11.140;2022-07-23T04:31:39;9.70;;;8.77;;
11960;SDS011;6040;49.358;11.140;2022-07-23T04:34:06;10.30;;;9.20;;
11960;SDS011;6040;49.358;11.140;2022-07-23T04:36:32;9.97;;;9.13;;
11960;SDS011;6040;49.358;11.140;2022-07-23T04:38:59;9.30;;;8.40;;
11960;SDS011;6040;49.358;11.140;2022-07-23T04:41:26;9.93;;;8.93;;
11960;SDS011;6040;49.358;11.140;2022-07-23T04:43:53;9.90;;;9.00;;
11960;SDS011;6040;49.358;11.140;2022-07-23T04:46:20;11.83;;;10.03;;
11960;SDS011;6040;49.358;11.140;2022-07-23T04:48:48;11.33;;;9.73;;
11960;SDS011;6040;49.358;11.140;2022-07-23T04:51:15;11.57;;;9.40;;
11960;SDS011;6040;49.358;11.140;2022-07-23T04:53:42;10.50;;;9.50;;
11960;SDS011;6040;49.358;11.140;2022-07-23T04:56:08;9.83;;;8.77;;
11960;SDS011;6040;49.358;11.140;2022-07-23T04:58:35;9.80;;;8.80;;
11960;SDS011;6040;49.358;11.140;2022-07-23T05:01:02;9.57;;;8.50;;
11960;SDS011;6040;49.358;11.140;2022-07-23T05:03:29;9.73;;;8.83;;
11960;SDS011;6040;49.358;11.140;2022-07-23T05:05:58;9.80;;;8.83;;
11960;SDS011;6040;49.358;11.140;2022-07-23T05:08:25;9.37;;;8.40;;
11960;SDS011;6040;49.358;11.140;2022-07-23T05:10:51;9.33;;;7.90;;
11960;SDS011;6040;49.358;11.140;2022-07-23T05:13:18;7.77;;;6.40;;
11960;SDS011;6040;49.358;11.140;2022-07-23T05:15:45;7.90;;;7.10;;
11960;SDS011;6040;49.358;11.140;2022-07-23T05:18:12;8.47;;;6.63;;
11960;SDS011;6040;49.358;11.140;2022-07-23T05:20:39;6.40;;;5.80;;
11960;SDS011;6040;49.358;11.140;2022-07-23T05:23:07;6.30;;;5.80;;
11960;SDS011;6040;49.358;11.140;2022-07-23T05:25:35;6.23;;;5.63;;
11960;SDS011;6040;49.358;11.140;2022-07-23T05:28:02;6.37;;;5.87;;
11960;SDS011;6040;49.358;11.140;2022-07-23T05:30:29;7.80;;;5.50;;
11960;SDS011;6040;49.358;11.140;2022-07-23T05:32:56;5.93;;;5.37;;
11960;SDS011;6040;49.358;11.140;2022-07-23T05:35:23;5.47;;;4.97;;
11960;SDS011;6040;49.358;11.140;2022-07-23T05:37:50;6.23;;;4.87;;
11960;SDS011;6040;49.358;11.140;2022-07-23T05:40:19;5.10;;;4.60;;
11960;SDS011;6040;49.358;11.140;2022-07-23T05:42:46;7.67;;;4.70;;
11960;SDS011;6040;49.358;11.140;2022-07-23T05:45:12;5.27;;;4.77;;
11960;SDS011;6040;49.358;11.140;2022-07-23T05:47:40;5.20;;;4.70;;
11960;SDS011;6040;49.358;11.140;2022-07-23T05:50:08;5.33;;;4.57;;
11960;SDS011;6040;49.358;11.140;2022-07-23T05:52:36;5.20;;;4.40;;
11960;SDS011;6040;49.358;11.140;2022-07-23T05:55:03;5.07;;;4.57;;
11960;SDS011;6040;49.358;11.140;2022-07-23T05:57:32;6.47;;;4.57;;
11960;SDS011;6040;49.358;11.140;2022-07-23T05:59:59;4.60;;;4.20;;
11960;SDS011;6040;49.358;11.140;2022-07-23T06:02:26;4.67;;;4.27;;
11960;SDS011;6040;49.358;11.140;2022-07-23T06:04:53;4.97;;;4.47;;
11960;SDS011;6040;49.358;11.140;2022-07-23T06:07:20;4.97;;;4.57;;
11960;SDS011;6040;49.358;11.140;2022-07-23T06:09:47;4.93;;;4.50;;
11960;SDS011;6040;49.358;11.140;2022-07-23T06:12:14;4.70;;;4.30;;
11960;SDS011;6040;49.358;11.140;2022-07-23T06:14:43;5.17;;;4.70;;
11960;SDS011;6040;49.358;11.140;2022-07-23T06:17:10;5.67;;;4.50;;
11960;SDS011;6040;49.358;11.140;2022-07-23T06:19:37;4.73;;;3.97;;
11960;SDS011;6040;49.358;11.140;2022-07-23T06:22:04;4.37;;;3.97;;
11960;SDS011;6040;49.358;11.140;2022-07-23T06:24:31;4.50;;;4.10;;
11960;SDS011;6040;49.358;11.140;2022-07-23T06:26:58;6.37;;;4.67;;
11960;SDS011;6040;49.358;11.140;2022-07-23T06:29:24;6.70;;;4.17;;
11960;SDS011;6040;49.358;11.140;2022-07-23T06:31:53;5.10;;;4.70;;
11960;SDS011;6040;49.358;11.140;2022-07-23T06:34:20;4.13;;;3.83;;
11960;SDS011;6040;49.358;11.140;2022-07-23T06:36:46;5.15;;;4.65;;
11960;SDS011;6040;49.358;11.140;2022-07-23T06:39:13;4.15;;;3.85;;
11960;SDS011;6040;49.358;11.140;2022-07-23T06:41:40;5.28;;;4.55;;
11960;SDS011;6040;49.358;11.140;2022-07-23T06:44:07;5.35;;;4.30;;
11960;SDS011;6040;49.358;11.140;2022-07-23T06:46:34;4.30;;;3.90;;
11960;SDS011;6040;49.358;11.140;2022-07-23T06:49:02;4.57;;;4.10;;
11960;SDS011;6040;49.358;11.140;2022-07-23T06:51:30;4.95;;;4.45;;
11960;SDS011;6040;49.358;11.140;2022-07-23T06:53:57;4.60;;;4.20;;
11960;SDS011;6040;49.358;11.140;2022-07-23T06:56:24;4.70;;;4.22;;
11960;SDS011;6040;49.358;11.140;2022-07-23T06:58:51;4.90;;;4.50;;
11960;SDS011;6040;49.358;11.140;2022-07-23T07:01:18;4.97;;;4.38;;
11960;SDS011;6040;49.358;11.140;2022-07-23T07:03:45;5.15;;;4.18;;
11960;SDS011;6040;49.358;11.140;2022-07-23T07:06:13;4.97;;;4.28;;
11960;SDS011;6040;49.358;11.140;2022-07-23T07:08:40;6.03;;;4.47;;
11960;SDS011;6040;49.358;11.140;2022-07-23T07:11:08;5.95;;;4.63;;
11960;SDS011;6040;49.358;11.140;2022-07-23T07:13:35;5.00;;;4.60;;
11960;SDS011;6040;49.358;11.140;2022-07-23T07:16:02;4.50;;;4.20;;
11960;SDS011;6040;49.358;11.140;2022-07-23T07:18:29;5.03;;;4.38;;
11960;SDS011;6040;49.358;11.140;2022-07-23T07:20:56;6.18;;;4.65;;
11960;SDS011;6040;49.358;11.140;2022-07-23T07:23:25;5.18;;;4.53;;
11960;SDS011;6040;49.358;11.140;2022-07-23T07:25:52;7.50;;;5.30;;
11960;SDS011;6040;49.358;11.140;2022-07-23T07:28:18;6.10;;;4.65;;
11960;SDS011;6040;49.358;11.140;2022-07-23T07:30:46;7.80;;;5.07;;
11960;SDS011;6040;49.358;11.140;2022-07-23T07:33:13;5.00;;;4.60;;
11960;SDS011;6040;49.358;11.140;2022-07-23T07:35:40;5.03;;;4.60;;
11960;SDS011;6040;49.358;11.140;2022-07-23T07:38:07;5.32;;;4.82;;
11960;SDS011;6040;49.358;11.140;2022-07-23T07:40:35;5.50;;;4.60;;
11960;SDS011;6040;49.358;11.140;2022-07-23T07:46:23;6.50;;;5.20;;
11960;SDS011;6040;49.358;11.140;2022-07-23T07:48:52;6.22;;;4.68;;
11960;SDS011;6040;49.358;11.140;2022-07-23T07:51:19;5.78;;;5.20;;
11960;SDS011;6040;49.358;11.140;2022-07-23T07:53:46;5.55;;;5.05;;
11960;SDS011;6040;49.358;11.140;2022-07-23T07:56:14;6.15;;;5.65;;
11960;SDS011;6040;49.358;11.140;2022-07-23T07:58:41;5.97;;;5.15;;
11960;SDS011;6040;49.358;11.140;2022-07-23T08:04:29;7.53;;;5.47;;
11960;SDS011;6040;49.358;11.140;2022-07-23T08:06:56;7.03;;;5.63;;
11960;SDS011;6040;49.358;11.140;2022-07-23T08:09:23;5.50;;;5.00;;
11960;SDS011;6040;49.358;11.140;2022-07-23T08:11:51;7.75;;;5.57;;
11960;SDS011;6040;49.358;11.140;2022-07-23T08:14:18;5.38;;;4.88;;
11960;SDS011;6040;49.358;11.140;2022-07-23T08:16:45;6.35;;;5.00;;
11960;SDS011;6040;49.358;11.140;2022-07-23T08:19:12;7.05;;;5.70;;
11960;SDS011;6040;49.358;11.140;2022-07-23T08:21:38;7.95;;;5.25;;
11960;SDS011;6040;49.358;11.140;2022-07-23T08:24:05;6.80;;;5.53;;
11960;SDS011;6040;49.358;11.140;2022-07-23T08:26:32;6.00;;;5.43;;
11960;SDS011;6040;49.358;11.140;2022-07-23T08:29:00;4.97;;;4.53;;
11960;SDS011;6040;49.358;11.140;2022-07-23T08:31:27;9.10;;;4.88;;
11960;SDS011;6040;49.358;11.140;2022-07-23T08:33:54;5.82;;;4.57;;
11960;SDS011;6040;49.358;11.140;2022-07-23T08:36:22;5.75;;;4.72;;
11960;SDS011;6040;49.358;11.140;2022-07-23T08:38:49;5.78;;;5.28;;
11960;SDS011;6040;49.358;11.140;2022-07-23T08:41:15;5.30;;;4.80;;
11960;SDS011;6040;49.358;11.140;2022-07-23T08:43:42;5.30;;;4.80;;
11960;SDS011;6040;49.358;11.140;2022-07-23T08:46:12;5.10;;;4.63;;
11960;SDS011;6040;49.358;11.140;2022-07-23T08:48:39;6.30;;;4.97;;
11960;SDS011;6040;49.358;11.140;2022-07-23T08:51:06;5.65;;;4.75;;
11960;SDS011;6040;49.358;11.140;2022-07-23T08:53:35;5.50;;;5.00;;
11960;SDS011;6040;49.358;11.140;2022-07-23T08:56:04;5.30;;;4.80;;
11960;SDS011;6040;49.358;11.140;2022-07-23T08:58:31;5.63;;;5.13;;
11960;SDS011;6040;49.358;11.140;2022-07-23T09:00:58;5.30;;;4.90;;
11960;SDS011;6040;49.358;11.140;2022-07-23T09:03:27;5.82;;;5.32;;
11960;SDS011;6040;49.358;11.140;2022-07-23T09:05:56;6.28;;;5.30;;
11960;SDS011;6040;49.358;11.140;2022-07-23T09:08:25;5.53;;;5.03;;
11960;SDS011;6040;49.358;11.140;2022-07-23T09:11:00;6.22;;;5.05;;
11960;SDS011;6040;49.358;11.140;2022-07-23T09:13:30;5.40;;;4.93;;
11960;SDS011;6040;49.358;11.140;2022-07-23T09:16:04;7.50;;;5.00;;
11960;SDS011;6040;49.358;11.140;2022-07-23T09:18:39;6.53;;;5.10;;
11960;SDS011;6040;49.358;11.140;2022-07-23T09:21:15;6.25;;;5.10;;
11960;SDS011;6040;49.358;11.140;2022-07-23T09:23:48;6.45;;;4.60;;
11960;SDS011;6040;49.358;11.140;2022-07-23T09:26:18;7.40;;;5.03;;
11960;SDS011;6040;49.358;11.140;2022-07-23T09:28:49;6.38;;;5.00;;
11960;SDS011;6040;49.358;11.140;2022-07-23T09:31:17;5.67;;;5.10;;
11960;SDS011;6040;49.358;11.140;2022-07-23T09:33:45;5.10;;;4.53;;
11960;SDS011;6040;49.358;11.140;2022-07-23T09:36:12;8.60;;;5.15;;
11960;SDS011;6040;49.358;11.140;2022-07-23T09:38:47;6.20;;;4.97;;
11960;SDS011;6040;49.358;11.140;2022-07-23T09:41:15;5.72;;;5.07;;
11960;SDS011;6040;49.358;11.140;2022-07-23T09:43:42;7.03;;;5.03;;
11960;SDS011;6040;49.358;11.140;2022-07-23T09:46:19;6.00;;;4.80;;
11960;SDS011;6040;49.358;11.140;2022-07-23T09:48:49;7.43;;;5.10;;
11960;SDS011;6040;49.358;11.140;2022-07-23T09:51:17;5.03;;;4.53;;
11960;SDS011;6040;49.358;11.140;2022-07-23T09:53:47;6.50;;;5.37;;
11960;SDS011;6040;49.358;11.140;2022-07-23T09:56:14;6.10;;;5.13;;
11960;SDS011;6040;49.358;11.140;2022-07-23T09:58:41;6.00;;;4.83;;
11960;SDS011;6040;49.358;11.140;2022-07-23T10:01:14;5.77;;;5.00;;
11960;SDS011;6040;49.358;11.140;2022-07-23T10:03:41;6.63;;;5.30;;
11960;SDS011;6040;49.358;11.140;2022-07-23T10:06:10;5.47;;;4.47;;
11960;SDS011;6040;49.358;11.140;2022-07-23T10:08:40;5.63;;;5.07;;
11960;SDS011;6040;49.358;11.140;2022-07-23T10:11:08;5.33;;;4.73;;
11960;SDS011;6040;49.358;11.140;2022-07-23T10:13:36;5.87;;;4.87;;
11960;SDS011;6040;49.358;11.140;2022-07-23T10:16:19;5.10;;;4.60;;
11960;SDS011;6040;49.358;11.140;2022-07-23T10:18:47;5.80;;;4.40;;
11960;SDS011;6040;49.358;11.140;2022-07-23T10:21:18;5.90;;;4.90;;
11960;SDS011;6040;49.358;11.140;2022-07-23T10:23:51;5.20;;;4.70;;
11960;SDS011;6040;49.358;11.140;2022-07-23T10:26:35;8.43;;;5.10;;
11960;SDS011;6040;49.358;11.140;2022-07-23T10:29:10;7.53;;;5.17;;
11960;SDS011;6040;49.358;11.140;2022-07-23T10:31:47;5.70;;;5.00;;
11960;SDS011;6040;49.358;11.140;2022-07-23T10:34:24;7.00;;;5.27;;
11960;SDS011;6040;49.358;11.140;2022-07-23T10:37:01;5.30;;;4.77;;
11960;SDS011;6040;49.358;11.140;2022-07-23T10:39:34;5.90;;;5.30;;
11960;SDS011;6040;49.358;11.140;2022-07-23T10:42:08;7.13;;;5.17;;
11960;SDS011;6040;49.358;11.140;2022-07-23T10:44:37;5.93;;;5.10;;
11960;SDS011;6040;49.358;11.140;2022-07-23T10:47:07;7.10;;;5.20;;
11960;SDS011;6040;49.358;11.140;2022-07-23T10:49:54;5.50;;;5.00;;
11960;SDS011;6040;49.358;11.140;2022-07-23T10:55:40;6.47;;;5.37;;
11960;SDS011;6040;49.358;11.140;2022-07-23T10:58:18;5.53;;;5.03;;
11960;SDS011;6040;49.358;11.140;2022-07-23T11:00:46;5.47;;;4.90;;
11960;SDS011;6040;49.358;11.140;2022-07-23T11:03:30;5.80;;;5.20;;
11960;SDS011;6040;49.358;11.140;2022-07-23T11:06:00;6.17;;;5.20;;
11960;SDS011;6040;49.358;11.140;2022-07-23T11:08:29;6.60;;;5.23;;
11960;SDS011;6040;49.358;11.140;2022-07-23T11:11:08;5.67;;;5.10;;
11960;SDS011;6040;49.358;11.140;2022-07-23T11:13:46;6.90;;;6.10;;
11960;SDS011;6040;49.358;11.140;2022-07-23T11:16:17;6.10;;;5.50;;
11960;SDS011;6040;49.358;11.140;2022-07-23T11:18:53;5.30;;;4.87;;
11960;SDS011;6040;49.358;11.140;2022-07-23T11:24:16;9.43;;;5.13;;
11960;SDS011;6040;49.358;11.140;2022-07-23T11:26:45;5.47;;;4.97;;
11960;SDS011;6040;49.358;11.140;2022-07-23T11:32:24;5.50;;;4.93;;
11960;SDS011;6040;49.358;11.140;2022-07-23T11:34:56;5.00;;;4.60;;
11960;SDS011;6040;49.358;11.140;2022-07-23T11:37:27;5.53;;;4.93;;
11960;SDS011;6040;49.358;11.140;2022-07-23T11:40:01;5.07;;;4.57;;
11960;SDS011;6040;49.358;11.140;2022-07-23T11:42:30;5.10;;;4.70;;
11960;SDS011;6040;49.358;11.140;2022-07-23T11:44:58;4.63;;;4.17;;
11960;SDS011;6040;49.358;11.140;2022-07-23T11:47:25;5.27;;;4.50;;
11960;SDS011;6040;49.358;11.140;2022-07-23T11:49:53;6.07;;;4.10;;
11960;SDS011;6040;49.358;11.140;2022-07-23T11:52:21;4.10;;;3.70;;
11960;SDS011;6040;49.358;11.140;2022-07-23T11:54:48;4.03;;;3.73;;
11960;SDS011;6040;49.358;11.140;2022-07-23T11:57:19;4.23;;;3.80;;
11960;SDS011;6040;49.358;11.140;2022-07-23T11:59:47;4.73;;;4.23;;
11960;SDS011;6040;49.358;11.140;2022-07-23T12:02:16;5.00;;;4.50;;
11960;SDS011;6040;49.358;11.140;2022-07-23T12:04:46;4.53;;;4.13;;
11960;SDS011;6040;49.358;11.140;2022-07-23T12:07:23;4.82;;;4.25;;
11960;SDS011;6040;49.358;11.140;2022-07-23T12:09:54;4.90;;;4.47;;
11960;SDS011;6040;49.358;11.140;2022-07-23T12:12:24;4.65;;;4.20;;
11960;SDS011;6040;49.358;11.140;2022-07-23T12:14:51;5.18;;;4.55;;
11960;SDS011;6040;49.358;11.140;2022-07-23T12:17:20;5.32;;;4.70;;
11960;SDS011;6040;49.358;11.140;2022-07-23T12:19:52;5.22;;;4.65;;
11960;SDS011;6040;49.358;11.140;2022-07-23T12:22:20;5.30;;;4.80;;
11960;SDS011;6040;49.358;11.140;2022-07-23T12:24:52;4.95;;;4.55;;
11960;SDS011;6040;49.358;11.140;2022-07-23T12:27:21;6.25;;;5.10;;
11960;SDS011;6040;49.358;11.140;2022-07-23T12:29:50;4.70;;;4.30;;
11960;SDS011;6040;49.358;11.140;2022-07-23T12:32:17;5.10;;;4.53;;
11960;SDS011;6040;49.358;11.140;2022-07-23T12:34:46;4.63;;;4.22;;
11960;SDS011;6040;49.358;11.140;2022-07-23T12:37:25;4.80;;;4.40;;
11960;SDS011;6040;49.358;11.140;2022-07-23T12:39:53;4.53;;;4.15;;
11960;SDS011;6040;49.358;11.140;2022-07-23T12:42:20;4.68;;;4.28;;
11960;SDS011;6040;49.358;11.140;2022-07-23T12:45:09;4.55;;;4.13;;
11960;SDS011;6040;49.358;11.140;2022-07-23T12:53:24;4.97;;;4.53;;
11960;SDS011;6040;49.358;11.140;2022-07-23T12:55:56;4.90;;;4.40;;
11960;SDS011;6040;49.358;11.140;2022-07-23T12:58:25;5.20;;;4.70;;
11960;SDS011;6040;49.358;11.140;2022-07-23T13:01:01;6.38;;;4.28;;
11960;SDS011;6040;49.358;11.140;2022-07-23T13:03:31;4.50;;;4.10;;
11960;SDS011;6040;49.358;11.140;2022-07-23T13:06:04;4.85;;;4.40;;
11960;SDS011;6040;49.358;11.140;2022-07-23T13:08:33;4.70;;;4.30;;
11960;SDS011;6040;49.358;11.140;2022-07-23T13:11:02;4.70;;;4.25;;
11960;SDS011;6040;49.358;11.140;2022-07-23T13:13:31;4.40;;;4.07;;
11960;SDS011;6040;49.358;11.140;2022-07-23T13:16:01;5.20;;;4.72;;
11960;SDS011;6040;49.358;11.140;2022-07-23T13:18:28;6.40;;;4.22;;
11960;SDS011;6040;49.358;11.140;2022-07-23T13:20:56;4.75;;;4.35;;
11960;SDS011;6040;49.358;11.140;2022-07-23T13:23:23;4.70;;;4.25;;
11960;SDS011;6040;49.358;11.140;2022-07-23T13:25:50;4.75;;;4.35;;
11960;SDS011;6040;49.358;11.140;2022-07-23T13:28:18;4.88;;;4.47;;
11960;SDS011;6040;49.358;11.140;2022-07-23T13:30:48;5.50;;;4.53;;
11960;SDS011;6040;49.358;11.140;2022-07-23T13:33:17;4.45;;;4.10;;
11960;SDS011;6040;49.358;11.140;2022-07-23T13:35:45;5.75;;;4.80;;
11960;SDS011;6040;49.358;11.140;2022-07-23T13:38:13;5.50;;;4.97;;
11960;SDS011;6040;49.358;11.140;2022-07-23T13:40:40;5.20;;;4.70;;
11960;SDS011;6040;49.358;11.140;2022-07-23T13:43:08;5.40;;;4.90;;
11960;SDS011;6040;49.358;11.140;2022-07-23T13:45:36;7.13;;;4.60;;
11960;SDS011;6040;49.358;11.140;2022-07-23T13:48:04;4.80;;;4.40;;
11960;SDS011;6040;49.358;11.140;2022-07-23T13:50:33;6.68;;;4.70;;
11960;SDS011;6040;49.358;11.140;2022-07-23T13:53:00;5.45;;;4.95;;
11960;SDS011;6040;49.358;11.140;2022-07-23T13:55:28;5.50;;;5.05;;
11960;SDS011;6040;49.358;11.140;2022-07-23T13:57:55;5.78;;;5.28;;
11960;SDS011;6040;49.358;11.140;2022-07-23T14:00:22;5.50;;;4.93;;
11960;SDS011;6040;49.358;11.140;2022-07-23T14:02:49;5.97;;;5.05;;
11960;SDS011;6040;49.358;11.140;2022-07-23T14:05:16;5.32;;;4.60;;
11960;SDS011;6040;49.358;11.140;2022-07-23T14:07:44;5.55;;;5.05;;
11960;SDS011;6040;49.358;11.140;2022-07-23T14:10:14;5.13;;;4.55;;
11960;SDS011;6040;49.358;11.140;2022-07-23T14:12:42;5.32;;;4.25;;
11960;SDS011;6040;49.358;11.140;2022-07-23T14:15:09;5.05;;;4.55;;
11960;SDS011;6040;49.358;11.140;2022-07-23T14:17:36;5.30;;;4.45;;
11960;SDS011;6040;49.358;11.140;2022-07-23T14:20:05;5.30;;;4.80;;
11960;SDS011;6040;49.358;11.140;2022-07-23T14:22:32;5.25;;;4.75;;
11960;SDS011;6040;49.358;11.140;2022-07-23T14:25:01;4.95;;;4.53;;
11960;SDS011;6040;49.358;11.140;2022-07-23T14:27:28;5.65;;;5.15;;
11960;SDS011;6040;49.358;11.140;2022-07-23T14:29:56;5.10;;;4.70;;
11960;SDS011;6040;49.358;11.140;2022-07-23T14:32:24;5.57;;;5.18;;
11960;SDS011;6040;49.358;11.140;2022-07-23T14:34:51;5.18;;;4.68;;
11960;SDS011;6040;49.358;11.140;2022-07-23T14:37:18;5.85;;;4.93;;
11960;SDS011;6040;49.358;11.140;2022-07-23T14:39:45;4.82;;;4.43;;
11960;SDS011;6040;49.358;11.140;2022-07-23T14:42:14;5.85;;;5.15;;
11960;SDS011;6040;49.358;11.140;2022-07-23T14:44:41;5.82;;;5.32;;
11960;SDS011;6040;49.358;11.140;2022-07-23T14:47:08;5.47;;;4.97;;
11960;SDS011;6040;49.358;11.140;2022-07-23T14:49:35;5.32;;;4.82;;
11960;SDS011;6040;49.358;11.140;2022-07-23T14:52:02;6.68;;;5.30;;
11960;SDS011;6040;49.358;11.140;2022-07-23T14:54:30;5.80;;;5.20;;
11960;SDS011;6040;49.358;11.140;2022-07-23T14:56:57;5.70;;;5.15;;
11960;SDS011;6040;49.358;11.140;2022-07-23T14:59:27;6.00;;;5.50;;
11960;SDS011;6040;49.358;11.140;2022-07-23T15:01:55;5.75;;;5.20;;
11960;SDS011;6040;49.358;11.140;2022-07-23T15:04:22;5.43;;;4.93;;
11960;SDS011;6040;49.358;11.140;2022-07-23T15:06:49;5.82;;;5.25;;
11960;SDS011;6040;49.358;11.140;2022-07-23T15:09:15;5.72;;;5.22;;
11960;SDS011;6040;49.358;11.140;2022-07-23T15:11:43;5.60;;;5.10;;